Time;durP1;ratioP1;P1;durP2;ratioP2;P2;SDS_P1;SDS_P2;PMS_P1;PMS_P2;Temp;Humidity;BMP_temperature;BMP_pressure;BME280_temperature;BME280_humidity;BME280_pressure;Samples;Min_cycle;Max_cycle;Signal;HPM_P1;HPM_P2
2022/08/15 00:00:19;;;;;;;8.25;5.97;;;;;;;18.74;70.19;94808.41;5027990;28;20033;-83
2022/08/15 00:02:45;;;;;;;9.05;6.30;;;;;;;18.78;69.92;94804.09;5028193;28;20021;-83
2022/08/15 00:05:12;;;;;;;10.93;6.53;;;;;;;18.84;69.75;94801.50;5027850;28;20112;-82
2022/08/15 00:07:38;;;;;;;9.88;6.25;;;;;;;18.90;69.64;94801.34;5028322;28;20022;-82
2022/08/15 00:10:04;;;;;;;8.80;6.32;;;;;;;18.80;69.95;94808.50;5027474;28;20083;-83
2022/08/15 00:12:29;;;;;;;8.13;6.18;;;;;;;18.77;70.27;94817.94;5028173;28;20033;-82
2022/08/15 00:14:56;;;;;;;8.52;6.38;;;;;;;18.76;69.89;94805.44;5027816;28;20045;-83
2022/08/15 00:17:23;;;;;;;8.68;6.47;;;;;;;18.76;70.38;94805.44;5028413;28;20036;-82
2022/08/15 00:19:48;;;;;;;8.23;6.55;;;;;;;18.68;70.44;94806.66;5027977;28;20516;-82
2022/08/15 00:22:18;;;;;;;9.38;6.47;;;;;;;18.72;70.20;94794.22;5030843;28;20024;-82
2022/08/15 00:24:45;;;;;;;6.97;5.97;;;;;;;18.58;70.69;94798.31;5034680;28;20021;-83
2022/08/15 00:27:11;;;;;;;9.13;6.63;;;;;;;18.41;70.98;94794.47;5033562;28;20051;-83
2022/08/15 00:29:37;;;;;;;8.60;6.97;;;;;;;18.48;70.81;94790.78;5034729;28;20260;-83
2022/08/15 00:32:06;;;;;;;8.10;6.53;;;;;;;18.50;70.97;94791.38;5030263;28;20187;-83
2022/08/15 00:34:31;;;;;;;8.05;6.80;;;;;;;18.36;71.50;94797.09;5034328;28;20026;-83
2022/08/15 00:36:57;;;;;;;7.80;6.93;;;;;;;18.46;70.62;94798.38;5031265;28;20032;-83
2022/08/15 00:39:24;;;;;;;9.20;6.78;;;;;;;18.52;70.52;94798.22;5030308;28;20080;-82
2022/08/15 00:41:50;;;;;;;8.35;7.20;;;;;;;18.57;70.34;94796.66;5030716;28;20022;-82
2022/08/15 00:44:15;;;;;;;7.90;6.50;;;;;;;18.59;70.35;94792.63;5029897;28;20021;-82
2022/08/15 00:46:46;;;;;;;8.27;7.30;;;;;;;18.61;70.17;94792.38;5028991;28;20048;-83
2022/08/15 00:49:12;;;;;;;9.35;7.40;;;;;;;18.59;69.76;94798.06;5026710;28;20032;-83
2022/08/15 00:51:45;;;;;;;10.13;7.47;;;;;;;18.65;69.70;94794.38;5027725;28;20449;-83
2022/08/15 00:54:24;;;;;;;7.97;6.78;;;;;;;18.63;70.07;94790.25;5025981;28;20107;-83
2022/08/15 00:56:55;;;;;;;9.98;7.97;;;;;;;18.65;69.26;94780.00;5027043;28;20065;-83
2022/08/15 00:59:24;;;;;;;9.50;7.68;;;;;;;18.61;69.63;94782.34;5025596;28;20029;-83
2022/08/15 01:01:50;;;;;;;11.52;8.30;;;;;;;18.58;69.72;94774.69;5026967;28;20057;-83
2022/08/15 01:04:16;;;;;;;10.15;7.45;;;;;;;18.52;69.90;94775.69;5026116;28;20076;-83
2022/08/15 01:06:45;;;;;;;8.93;7.40;;;;;;;18.48;69.95;94779.94;5026785;28;20045;-83
2022/08/15 01:09:11;;;;;;;8.77;7.82;;;;;;;18.43;70.12;94774.44;5028157;28;20056;-83
2022/08/15 01:11:41;;;;;;;11.13;8.45;;;;;;;18.48;69.92;94772.63;5026951;28;20045;-83
2022/08/15 01:14:07;;;;;;;10.30;8.00;;;;;;;18.45;69.79;94780.41;5010172;28;20120;-83
2022/08/15 01:16:32;;;;;;;10.45;8.05;;;;;;;18.48;69.72;94778.06;5025662;28;20041;-83
2022/08/15 01:18:58;;;;;;;9.48;7.40;;;;;;;18.46;70.07;94779.38;5025774;28;20534;-83
2022/08/15 01:21:34;;;;;;;10.93;7.82;;;;;;;18.52;69.66;94781.13;5027075;28;20037;-82
2022/08/15 01:24:24;;;;;;;9.63;8.27;;;;;;;18.51;69.86;94785.72;5009987;28;20109;-83
2022/08/15 01:26:50;;;;;;;12.27;7.60;;;;;;;18.47;69.82;94786.44;5027989;28;20044;-83
2022/08/15 01:29:16;;;;;;;10.02;8.00;;;;;;;18.50;69.51;94786.78;5025707;28;20504;-83
2022/08/15 01:31:42;;;;;;;10.18;7.55;;;;;;;18.44;69.28;94785.06;5027785;28;20026;-83
2022/08/15 01:34:08;;;;;;;11.35;8.63;;;;;;;18.38;69.50;94784.09;5027337;28;20039;-83
2022/08/15 01:36:33;;;;;;;11.00;8.57;;;;;;;18.35;70.04;94784.59;5026052;28;20025;-83
2022/08/15 01:39:08;;;;;;;11.13;8.80;;;;;;;18.40;69.76;94789.31;5027557;28;20590;-82
2022/08/15 01:41:53;;;;;;;12.82;8.75;;;;;;;18.42;69.47;94779.03;5025486;28;20029;-82
2022/08/15 01:44:20;;;;;;;10.90;8.75;;;;;;;18.41;69.80;94783.63;5026221;28;20473;-82
2022/08/15 01:46:53;;;;;;;10.48;8.52;;;;;;;18.40;69.60;94775.72;5027193;28;20033;-82
2022/08/15 01:49:23;;;;;;;10.35;8.63;;;;;;;18.32;69.94;94770.69;5025661;28;20037;-83
2022/08/15 01:51:48;;;;;;;12.68;8.55;;;;;;;18.30;69.90;94770.13;5009530;28;20216;-82
2022/08/15 01:54:14;;;;;;;12.05;8.73;;;;;;;18.32;69.99;94771.50;5009383;28;20088;-83
2022/08/15 01:56:41;;;;;;;11.18;8.57;;;;;;;18.38;69.50;94770.53;5027382;28;20026;-83
2022/08/15 01:59:09;;;;;;;9.32;7.70;;;;;;;18.47;68.83;94775.59;5026809;28;20579;-83
2022/08/15 02:01:39;;;;;;;13.18;7.88;;;;;;;18.53;69.01;94766.47;5027002;28;20084;-82
2022/08/15 02:04:05;;;;;;;10.88;7.47;;;;;;;18.47;68.61;94770.16;5026866;28;20025;-82
2022/08/15 02:06:30;;;;;;;10.63;8.15;;;;;;;18.48;68.83;94769.06;5027181;28;20527;-82
2022/08/15 02:08:56;;;;;;;9.30;7.57;;;;;;;18.47;69.01;94775.59;5026623;28;20040;-82
2022/08/15 02:11:24;;;;;;;9.30;7.35;;;;;;;18.44;68.89;94763.34;5026624;28;20021;-82
2022/08/15 02:13:54;;;;;;;10.25;7.93;;;;;;;18.34;69.31;94773.97;5026988;28;20052;-83
2022/08/15 02:16:19;;;;;;;9.50;7.82;;;;;;;18.24;69.06;94777.31;5026314;28;20045;-83
2022/08/15 02:18:45;;;;;;;12.75;7.88;;;;;;;18.32;69.14;94776.94;5026868;28;20520;-83
2022/08/15 02:21:10;;;;;;;9.48;7.78;;;;;;;18.34;68.99;94776.69;5026494;28;20029;-83
2022/08/15 02:23:36;;;;;;;9.80;7.55;;;;;;;18.32;68.79;94778.81;5027292;28;20456;-82
2022/08/15 02:26:03;;;;;;;10.95;7.40;;;;;;;18.26;69.46;94783.34;5026349;28;20055;-83
2022/08/15 02:28:29;;;;;;;10.80;7.85;;;;;;;18.20;69.08;94790.53;5027049;28;20026;-83
2022/08/15 02:30:54;;;;;;;8.65;7.07;;;;;;;18.24;69.14;94788.19;5026212;28;20311;-83
2022/08/15 02:33:20;;;;;;;12.30;8.13;;;;;;;18.25;69.04;94795.28;5025328;28;20022;-83
2022/08/15 02:35:45;;;;;;;9.75;7.90;;;;;;;18.05;69.61;94785.63;5026114;28;20562;-83
2022/08/15 02:38:11;;;;;;;11.02;8.63;;;;;;;18.14;69.49;94797.78;5026199;28;20033;-82
2022/08/15 02:40:36;;;;;;;10.10;8.00;;;;;;;18.26;69.18;94805.06;5026857;28;20025;-82
2022/08/15 02:43:04;;;;;;;10.48;8.60;;;;;;;18.23;69.41;94800.09;5025369;28;20427;-82
2022/08/15 02:45:34;;;;;;;9.98;8.35;;;;;;;18.16;70.04;94802.97;5026731;28;20025;-83
2022/08/15 02:48:00;;;;;;;11.23;9.07;;;;;;;18.30;69.47;94808.91;5029137;28;20500;-82
2022/08/15 02:50:25;;;;;;;10.07;8.73;;;;;;;18.19;70.17;94809.78;5029857;28;20032;-83
2022/08/15 02:52:51;;;;;;;12.20;9.30;;;;;;;18.07;70.56;94815.22;5029616;28;20021;-83
2022/08/15 02:55:18;;;;;;;11.40;8.82;;;;;;;18.10;70.23;94815.56;5029413;28;20450;-82
2022/08/15 02:57:45;;;;;;;15.85;10.48;;;;;;;18.11;70.83;94817.22;5029747;28;20412;-82
2022/08/15 03:00:15;;;;;;;14.10;10.25;;;;;;;18.14;70.70;94819.47;5029026;28;20029;-83
2022/08/15 03:02:53;;;;;;;13.52;10.23;;;;;;;18.11;70.53;94822.66;5029742;28;20397;-82
2022/08/15 03:05:20;;;;;;;12.38;10.00;;;;;;;18.07;70.91;94826.88;5029231;28;20045;-82
2022/08/15 03:07:45;;;;;;;14.43;10.35;;;;;;;17.86;71.95;94831.88;5031670;28;20060;-83
2022/08/15 03:10:11;;;;;;;17.67;11.20;;;;;;;17.95;71.74;94831.50;5029386;28;20447;-84
2022/08/15 03:12:53;;;;;;;13.70;10.55;;;;;;;17.99;71.29;94833.50;5029713;28;20048;-83
2022/08/15 03:15:24;;;;;;;16.83;11.40;;;;;;;18.01;71.65;94834.09;5029749;28;20018;-83
2022/08/15 03:17:50;;;;;;;15.30;11.63;;;;;;;17.95;71.55;94848.63;5028646;28;20037;-84
2022/08/15 03:20:16;;;;;;;17.55;11.77;;;;;;;18.00;71.48;94847.91;5029577;28;20120;-84
2022/08/15 03:22:42;;;;;;;15.07;11.50;;;;;;;17.94;71.84;94851.56;5029053;28;20029;-82
2022/08/15 03:25:08;;;;;;;13.75;11.27;;;;;;;18.05;71.66;94853.44;5029072;28;20059;-82
2022/08/15 03:27:34;;;;;;;14.77;11.45;;;;;;;18.14;71.10;94862.91;5029297;28;20025;-83
2022/08/15 03:29:59;;;;;;;17.27;11.60;;;;;;;18.18;70.89;94859.69;5028787;28;20030;-83
2022/08/15 03:32:25;;;;;;;15.35;11.52;;;;;;;18.24;70.69;94858.75;5028960;28;20029;-83
2022/08/15 03:34:50;;;;;;;16.52;12.40;;;;;;;18.14;70.99;94860.19;5028386;28;20294;-82
2022/08/15 03:37:16;;;;;;;15.82;11.70;;;;;;;18.13;71.00;94863.97;5029040;28;20089;-83
2022/08/15 03:39:41;;;;;;;14.65;11.57;;;;;;;18.03;71.43;94858.28;5028261;28;20021;-83
2022/08/15 03:42:08;;;;;;;16.58;12.50;;;;;;;18.06;71.28;94862.41;5028517;28;20033;-83
2022/08/15 03:44:34;;;;;;;16.85;12.75;;;;;;;18.11;71.22;94857.91;5028281;28;20554;-82
2022/08/15 03:46:59;;;;;;;15.13;12.45;;;;;;;18.14;70.80;94859.34;5029351;28;20021;-82
2022/08/15 03:49:25;;;;;;;17.52;13.02;;;;;;;18.13;71.18;94863.97;5028616;28;20404;-82
2022/08/15 03:51:50;;;;;;;14.70;11.73;;;;;;;18.18;70.92;94854.28;5028885;28;20048;-82
2022/08/15 03:54:16;;;;;;;18.48;12.95;;;;;;;18.24;70.76;94864.16;5028942;28;20033;-83
2022/08/15 03:56:42;;;;;;;18.80;13.75;;;;;;;18.26;70.86;94852.03;5028258;28;20034;-83
2022/08/15 03:59:08;;;;;;;17.20;12.98;;;;;;;18.33;70.80;94867.34;5027404;28;20595;-83
2022/08/15 04:01:35;;;;;;;19.80;14.32;;;;;;;18.35;70.67;94871.47;5028077;28;20058;-82
2022/08/15 04:04:00;;;;;;;18.88;14.40;;;;;;;18.30;71.08;94874.06;5028432;28;20021;-83
2022/08/15 04:06:29;;;;;;;21.52;14.43;;;;;;;18.29;71.18;94872.44;5028207;28;20025;-83
2022/08/15 04:08:54;;;;;;;20.00;14.65;;;;;;;18.30;71.29;94865.91;5028124;28;20034;-83
2022/08/15 04:11:21;;;;;;;19.88;14.60;;;;;;;18.33;71.28;94861.91;5027842;28;20459;-83
2022/08/15 04:13:48;;;;;;;18.42;13.90;;;;;;;18.43;70.96;94858.59;5027582;28;20486;-83
2022/08/15 04:16:14;;;;;;;21.10;14.05;;;;;;;18.44;71.10;94854.81;5027457;28;20504;-83
2022/08/15 04:18:39;;;;;;;19.08;14.15;;;;;;;18.54;71.10;94857.69;5027370;28;20025;-83
2022/08/15 04:21:08;;;;;;;23.08;15.07;;;;;;;18.57;70.60;94859.94;5028073;28;20460;-83
2022/08/15 04:23:34;;;;;;;16.63;13.45;;;;;;;18.61;70.40;94852.13;5027930;28;20481;-84
2022/08/15 04:25:59;;;;;;;21.20;15.65;;;;;;;18.68;70.67;94849.28;5031225;28;20036;-82
2022/08/15 04:28:26;;;;;;;18.30;14.63;;;;;;;18.70;70.71;94844.44;5032744;28;20469;-83
2022/08/15 04:30:51;;;;;;;20.90;14.55;;;;;;;18.73;70.86;94850.19;5030630;28;20021;-83
2022/08/15 04:33:21;;;;;;;19.33;14.18;;;;;;;18.78;70.80;94844.06;5027700;28;20177;-83
2022/08/15 04:36:09;;;;;;;18.88;14.82;;;;;;;18.84;71.34;94853.94;5027250;28;20041;-83
2022/08/15 04:38:41;;;;;;;23.17;15.68;;;;;;;18.82;70.87;94842.47;5027680;28;20381;-83
2022/08/15 04:41:07;;;;;;;19.48;14.68;;;;;;;18.86;70.35;94850.97;5027645;28;20068;-82
2022/08/15 04:43:33;;;;;;;21.42;15.52;;;;;;;18.84;70.52;94844.94;5027427;28;20068;-83
2022/08/15 04:45:58;;;;;;;22.50;16.52;;;;;;;18.83;70.27;94851.47;5027757;28;20030;-83
2022/08/15 04:48:25;;;;;;;21.33;16.33;;;;;;;18.81;70.20;94859.84;5027343;28;20029;-84
2022/08/15 04:50:52;;;;;;;23.17;16.27;;;;;;;18.82;70.33;94858.78;5027540;28;20034;-83
2022/08/15 04:53:17;;;;;;;22.15;16.05;;;;;;;18.89;70.31;94864.88;5026933;28;20033;-82
2022/08/15 04:55:44;;;;;;;20.90;16.33;;;;;;;18.89;69.96;94859.44;5026083;28;20480;-83
2022/08/15 04:58:10;;;;;;;20.48;16.42;;;;;;;19.05;69.78;94869.78;5027198;28;20059;-84
2022/08/15 05:00:40;;;;;;;19.85;15.57;;;;;;;19.12;70.03;94862.34;5027022;28;20104;-84
2022/08/15 05:03:14;;;;;;;20.20;16.00;;;;;;;19.18;70.43;94861.34;5027385;28;20518;-83
2022/08/15 05:05:42;;;;;;;20.92;15.35;;;;;;;19.23;70.21;94860.59;5027064;28;20210;-82
2022/08/15 05:08:08;;;;;;;22.73;15.90;;;;;;;19.24;70.30;94857.63;5027597;28;20025;-83
2022/08/15 05:10:34;;;;;;;20.55;15.35;;;;;;;19.29;70.31;94861.50;5026322;28;20488;-83
2022/08/15 05:13:09;;;;;;;20.92;15.25;;;;;;;19.33;70.32;94857.25;5026879;28;20043;-82
2022/08/15 05:15:34;;;;;;;21.77;15.63;;;;;;;19.27;70.26;94856.31;5026613;28;20068;-83
2022/08/15 05:17:59;;;;;;;20.40;15.07;;;;;;;19.36;69.97;94854.03;5028139;28;20029;-83
2022/08/15 05:20:25;;;;;;;19.42;14.43;;;;;;;19.43;69.65;94857.38;5035771;28;20024;-83
2022/08/15 05:22:58;;;;;;;20.20;15.05;;;;;;;19.47;69.52;94861.28;5035285;28;20507;-83
2022/08/15 05:25:23;;;;;;;22.00;15.35;;;;;;;19.47;69.54;94866.72;5035284;28;20052;-82
2022/08/15 05:27:49;;;;;;;29.73;16.27;;;;;;;19.50;69.82;94857.22;5033543;28;20025;-83
2022/08/15 05:30:15;;;;;;;20.40;15.48;;;;;;;19.49;70.03;94850.94;5035727;28;20650;-83
2022/08/15 05:32:40;;;;;;;22.08;14.68;;;;;;;19.64;69.69;94858.53;5034168;28;20034;-84
2022/08/15 05:35:06;;;;;;;24.38;15.73;;;;;;;19.70;69.65;94861.34;5033071;28;20030;-83
2022/08/15 05:37:32;;;;;;;19.77;14.82;;;;;;;19.67;69.40;94867.28;5029227;28;20549;-83
2022/08/15 05:39:57;;;;;;;21.73;14.25;;;;;;;19.72;69.14;94868.16;5027415;28;20030;-83
2022/08/15 05:42:47;;;;;;;18.58;12.50;;;;;;;19.77;68.91;94864.69;5027914;28;20464;-83
2022/08/15 05:45:37;;;;;;;16.58;11.70;;;;;;;19.79;68.13;94869.88;5026270;28;20022;-83
2022/08/15 05:48:15;;;;;;;16.73;11.48;;;;;;;19.75;68.66;94869.56;5026192;28;20033;-83
2022/08/15 05:50:49;;;;;;;17.92;11.93;;;;;;;19.74;68.67;94873.34;5024737;28;20087;-83
2022/08/15 05:53:29;;;;;;;18.23;12.02;;;;;;;19.77;68.53;94870.97;5026544;28;20323;-83
2022/08/15 05:56:30;;;;;;;16.27;11.30;;;;;;;19.77;68.54;94881.03;5026419;28;20057;-83
2022/08/15 05:59:03;;;;;;;14.88;11.40;;;;;;;19.72;68.57;94876.31;5023967;28;20052;-82
2022/08/15 06:01:32;;;;;;;18.92;13.13;;;;;;;19.66;69.27;94881.94;5009424;28;20125;-82
2022/08/15 06:04:06;;;;;;;18.00;13.10;;;;;;;19.58;69.27;94870.41;5024942;28;20036;-83
2022/08/15 06:06:32;;;;;;;24.25;14.68;;;;;;;19.62;69.10;94877.00;5025299;28;20017;-84
2022/08/15 06:09:21;;;;;;;23.80;13.88;;;;;;;19.73;69.00;94871.72;5025411;28;20104;-83
2022/08/15 06:11:47;;;;;;;17.33;13.32;;;;;;;19.71;68.88;94882.84;5024421;28;20108;-83
2022/08/15 06:14:39;;;;;;;19.23;13.65;;;;;;;19.80;68.92;94877.81;5026372;28;20031;-82
2022/08/15 06:17:10;;;;;;;19.80;13.68;;;;;;;19.73;69.55;94867.09;5023854;28;20053;-83
2022/08/15 06:19:39;;;;;;;18.98;14.35;;;;;;;19.77;69.47;94872.84;5024852;28;20033;-82
2022/08/15 06:22:08;;;;;;;19.50;14.88;;;;;;;19.80;69.42;94866.13;5027016;28;20033;-82
2022/08/15 06:25:04;;;;;;;19.30;14.93;;;;;;;19.70;69.80;94866.78;5028215;28;20117;-83
2022/08/15 06:27:32;;;;;;;20.77;15.60;;;;;;;19.64;70.08;94871.31;5029936;28;20520;-85
2022/08/15 06:30:03;;;;;;;18.77;15.05;;;;;;;19.78;69.67;94866.34;5027928;28;20021;-83
2022/08/15 06:32:37;;;;;;;20.40;15.70;;;;;;;19.91;69.59;94864.34;5028283;28;20041;-83
2022/08/15 06:35:25;;;;;;;20.38;15.88;;;;;;;19.66;69.07;94874.59;5029454;28;20034;-83
2022/08/15 06:38:13;;;;;;;20.77;15.85;;;;;;;19.59;69.52;94874.78;5029175;28;20095;-83
2022/08/15 06:40:56;;;;;;;21.35;16.48;;;;;;;19.58;69.44;94873.13;5028506;28;20025;-84
2022/08/15 06:43:22;;;;;;;23.77;16.23;;;;;;;19.48;69.92;94873.78;5029347;28;20029;-84
2022/08/15 06:45:49;;;;;;;20.83;16.17;;;;;;;19.45;69.89;94876.19;5028939;28;20511;-83
2022/08/15 06:48:16;;;;;;;23.15;17.20;;;;;;;19.34;70.07;94880.63;5027961;28;20109;-83
2022/08/15 06:50:46;;;;;;;21.88;16.75;;;;;;;19.33;70.34;94887.16;5011300;28;20076;-83
2022/08/15 06:53:25;;;;;;;25.30;17.00;;;;;;;19.32;70.79;94883.59;5027583;28;20371;-83
2022/08/15 06:56:02;;;;;;;22.77;17.15;;;;;;;19.37;70.45;94880.97;5027391;28;20025;-83
2022/08/15 06:58:37;;;;;;;23.70;17.33;;;;;;;19.40;70.36;94885.06;5028768;28;20547;-83
2022/08/15 07:01:17;;;;;;;21.50;16.88;;;;;;;19.48;69.79;94887.38;5028900;28;20397;-84
2022/08/15 07:03:53;;;;;;;21.52;17.17;;;;;;;19.64;69.01;94883.00;5027309;28;20108;-85
2022/08/15 07:06:21;;;;;;;21.83;17.55;;;;;;;19.80;68.80;94891.41;5028775;28;20101;-84
2022/08/15 07:09:19;;;;;;;21.73;15.82;;;;;;;19.76;68.93;94885.63;5027398;28;20035;-84
2022/08/15 07:11:51;;;;;;;24.63;16.77;;;;;;;19.84;67.99;94884.41;5027982;28;20103;-83
2022/08/15 07:14:25;;;;;;;21.17;16.95;;;;;;;19.93;68.27;94886.69;5027688;28;20028;-84
2022/08/15 07:16:53;;;;;;;22.80;17.75;;;;;;;19.98;68.23;94884.03;5027991;28;20049;-84
2022/08/15 07:19:19;;;;;;;21.85;17.90;;;;;;;20.09;67.31;94885.03;5028450;28;20053;-83
2022/08/15 07:21:44;;;;;;;21.02;16.25;;;;;;;20.31;66.87;94882.34;5028289;28;20048;-84
2022/08/15 07:24:10;;;;;;;25.08;17.20;;;;;;;20.24;67.47;94879.81;5028745;28;20025;-83
2022/08/15 07:26:43;;;;;;;21.27;16.08;;;;;;;20.27;67.06;94881.19;5028683;28;20348;-84
2022/08/15 07:29:48;;;;;;;20.83;17.00;;;;;;;20.35;66.47;94883.50;5026763;28;20033;-84
2022/08/15 07:32:15;;;;;;;19.42;16.52;;;;;;;20.36;65.98;94885.13;5027996;28;20046;-83
2022/08/15 07:35:01;;;;;;;21.23;17.17;;;;;;;20.52;65.46;94882.63;5027573;28;20041;-83
2022/08/15 07:37:33;;;;;;;20.58;16.92;;;;;;;20.58;64.65;94883.47;5027556;28;20091;-83
2022/08/15 07:40:14;;;;;;;23.02;17.77;;;;;;;20.63;64.34;94889.81;5028302;28;20026;-82
2022/08/15 07:42:41;;;;;;;19.25;15.85;;;;;;;20.66;64.11;94890.38;5026166;28;20033;-82
2022/08/15 07:45:25;;;;;;;17.88;15.98;;;;;;;20.87;64.00;94889.53;5027919;28;20507;-84
2022/08/15 07:48:02;;;;;;;29.35;17.60;;;;;;;20.93;64.11;94892.34;5027035;28;20093;-83
2022/08/15 07:50:39;;;;;;;20.70;16.55;;;;;;;21.18;63.57;94880.88;5027716;28;20052;-82
2022/08/15 07:53:16;;;;;;;19.85;16.65;;;;;;;21.29;63.12;94889.97;5043539;28;20032;-83
2022/08/15 07:55:44;;;;;;;109.13;25.25;;;;;;;21.29;62.57;94884.53;5026435;28;20087;-83
2022/08/15 07:58:13;;;;;;;40.65;18.20;;;;;;;21.37;61.94;94888.69;5026798;28;20040;-84
2022/08/15 08:00:39;;;;;;;18.60;15.55;;;;;;;21.58;60.73;94886.97;5027251;28;20029;-83
2022/08/15 08:03:13;;;;;;;18.13;15.75;;;;;;;21.67;61.26;94886.44;5026780;28;20029;-84
2022/08/15 08:05:54;;;;;;;19.90;15.93;;;;;;;21.67;60.85;94886.44;5026495;28;20120;-84
2022/08/15 08:08:20;;;;;;;19.50;16.02;;;;;;;21.30;62.96;94891.63;5027319;28;20469;-85
2022/08/15 08:11:08;;;;;;;19.42;16.35;;;;;;;21.14;63.45;94890.66;5026532;28;20049;-84
2022/08/15 08:13:39;;;;;;;21.63;16.65;;;;;;;21.09;63.73;94894.16;5025852;28;20022;-83
2022/08/15 08:16:08;;;;;;;20.65;16.55;;;;;;;21.04;63.58;94896.81;5030566;28;20037;-84
2022/08/15 08:18:36;;;;;;;23.65;16.25;;;;;;;21.18;63.15;94899.16;5028688;28;20042;-83
2022/08/15 08:21:04;;;;;;;21.20;16.35;;;;;;;21.32;62.18;94913.19;5027710;28;20113;-86
2022/08/15 08:23:48;;;;;;;21.58;15.68;;;;;;;21.38;61.31;94908.59;5026285;28;20035;-83
2022/08/15 08:26:16;;;;;;;20.80;15.90;;;;;;;21.58;61.11;94895.16;5026441;28;20018;-83
2022/08/15 08:29:08;;;;;;;20.92;15.50;;;;;;;21.60;61.42;94903.06;5027771;28;20417;-84
2022/08/15 08:31:53;;;;;;;65.40;18.83;;;;;;;21.56;61.85;94900.03;5027385;28;20029;-84
2022/08/15 08:34:19;;;;;;;21.33;15.90;;;;;;;21.71;61.16;94898.50;5026162;28;20025;-84
2022/08/15 08:36:58;;;;;;;19.15;15.50;;;;;;;21.84;60.55;94895.34;5027012;28;20034;-83
2022/08/15 08:39:33;;;;;;;17.48;14.82;;;;;;;21.84;59.83;94889.88;5025238;28;20030;-83
2022/08/15 08:42:21;;;;;;;20.77;15.75;;;;;;;21.69;60.70;94887.03;5027495;28;20037;-83
2022/08/15 08:44:52;;;;;;;21.92;14.90;;;;;;;21.68;60.85;94896.31;5026440;28;20428;-84
2022/08/15 08:47:21;;;;;;;19.80;16.52;;;;;;;21.94;59.31;94894.59;5026676;28;20049;-84
2022/08/15 08:50:09;;;;;;;17.58;14.85;;;;;;;21.94;58.62;94893.78;5025592;28;20032;-85
2022/08/15 08:52:45;;;;;;;18.83;15.30;;;;;;;22.22;57.50;94894.50;5026092;28;20484;-85
2022/08/15 08:55:23;;;;;;;20.35;15.40;;;;;;;22.28;57.82;94896.16;5027178;28;20109;-84
2022/08/15 08:57:54;;;;;;;20.45;15.82;;;;;;;22.32;57.01;94882.81;5025304;28;20044;-84
2022/08/15 09:00:22;;;;;;;20.27;16.25;;;;;;;22.46;57.57;94883.13;5025290;28;20017;-84
2022/08/15 09:02:47;;;;;;;20.13;16.48;;;;;;;22.65;56.76;94879.97;5025547;28;20025;-84
2022/08/15 09:05:22;;;;;;;17.38;15.50;;;;;;;22.51;57.25;94880.44;5026284;28;20431;-84
2022/08/15 09:07:50;;;;;;;17.52;14.50;;;;;;;22.47;57.28;94873.88;5026507;28;20037;-84
2022/08/15 09:10:32;;;;;;;18.05;14.77;;;;;;;22.60;56.06;94878.06;5026462;28;20021;-84
2022/08/15 09:15:42;;;;;;;16.33;14.45;;;;;;;22.38;56.90;94864.50;5011748;28;20055;-83
2022/08/15 09:18:10;;;;;;;16.67;14.60;;;;;;;22.53;57.35;94858.31;5026372;28;20029;-86
2022/08/15 09:20:38;;;;;;;17.38;14.65;;;;;;;22.54;57.45;94863.50;5041752;28;20029;-83
2022/08/15 09:23:05;;;;;;;16.38;14.70;;;;;;;22.64;56.45;94859.19;5025741;28;20021;-84
2022/08/15 09:25:31;;;;;;;15.40;13.82;;;;;;;22.75;55.78;94862.81;5025442;28;20095;-84
2022/08/15 09:28:38;;;;;;;16.33;14.60;;;;;;;22.76;56.25;94859.78;5024864;28;20034;-84
2022/08/15 09:31:18;;;;;;;17.02;15.23;;;;;;;22.55;57.00;94862.44;5029316;28;20038;-85
2022/08/15 09:33:43;;;;;;;15.93;14.23;;;;;;;22.85;55.71;94862.81;5032755;28;20025;-85
2022/08/15 09:36:35;;;;;;;15.50;13.77;;;;;;;23.06;55.39;94858.22;5034779;28;20037;-84
2022/08/15 09:39:09;;;;;;;14.30;12.85;;;;;;;23.01;55.20;94851.91;5041456;28;20033;-83
2022/08/15 09:41:43;;;;;;;15.43;12.65;;;;;;;23.14;54.07;94850.56;5027930;28;20076;-84
2022/08/15 09:44:28;;;;;;;14.98;13.40;;;;;;;23.20;54.46;94852.19;5026384;28;20030;-83
2022/08/15 09:47:00;;;;;;;14.52;12.50;;;;;;;23.33;53.73;94853.59;5025468;28;20037;-83
2022/08/15 09:49:41;;;;;;;14.20;12.43;;;;;;;23.26;54.81;94851.13;5025870;28;20091;-83
2022/08/15 09:52:29;;;;;;;13.63;12.27;;;;;;;23.41;53.84;94857.72;5025409;28;20041;-84
2022/08/15 09:54:58;;;;;;;13.02;11.73;;;;;;;23.41;53.91;94857.72;5026588;28;20040;-83
2022/08/15 09:57:38;;;;;;;15.15;12.40;;;;;;;23.51;54.04;94846.78;5027956;28;20116;-84
2022/08/15 10:00:06;;;;;;;13.43;12.00;;;;;;;23.37;53.84;94851.13;5028836;28;20021;-83
2022/08/15 10:02:32;;;;;;;13.65;11.35;;;;;;;23.44;54.14;94847.06;5012019;28;20104;-85
2022/08/15 10:04:58;;;;;;;17.45;11.43;;;;;;;23.31;54.40;94853.06;5029999;28;20496;-84
2022/08/15 10:07:31;;;;;;;12.93;11.60;;;;;;;23.52;53.07;94847.63;5030660;28;20037;-83
2022/08/15 10:10:00;;;;;;;12.55;10.48;;;;;;;23.71;52.26;94845.94;5029593;28;20464;-83
2022/08/15 10:12:25;;;;;;;13.43;11.15;;;;;;;23.67;52.72;94839.38;5030247;28;20028;-83
2022/08/15 10:15:02;;;;;;;14.73;11.20;;;;;;;23.63;53.00;94843.78;5029887;28;20026;-83
2022/08/15 10:17:37;;;;;;;14.18;10.23;;;;;;;23.88;51.56;94839.34;5029881;28;20084;-84
2022/08/15 10:20:14;;;;;;;12.02;10.77;;;;;;;23.80;52.93;94831.69;5029848;28;20029;-85
2022/08/15 10:22:49;;;;;;;12.52;10.52;;;;;;;23.85;52.80;94826.22;5029932;28;20038;-84
2022/08/15 10:25:18;;;;;;;13.50;11.35;;;;;;;23.91;52.56;94837.97;5030172;28;20121;-84
2022/08/15 10:27:59;;;;;;;11.73;10.35;;;;;;;24.02;51.12;94834.13;5029658;28;20033;-83
2022/08/15 10:30:30;;;;;;;13.85;10.35;;;;;;;24.25;50.33;94831.06;5030150;28;20048;-84
2022/08/15 10:32:56;;;;;;;11.60;10.40;;;;;;;24.06;51.20;94824.25;5030435;28;20045;-86
2022/08/15 10:35:27;;;;;;;11.25;9.93;;;;;;;24.14;50.64;94827.50;5038424;28;20272;-83
2022/08/15 10:37:59;;;;;;;13.57;10.63;;;;;;;24.13;51.72;94817.66;5029923;28;20072;-84
2022/08/15 10:40:37;;;;;;;12.55;10.30;;;;;;;23.77;52.52;94822.13;5027640;28;20510;-84
2022/08/15 10:43:41;;;;;;;12.13;10.07;;;;;;;23.85;50.80;94822.66;5029459;28;20056;-84
2022/08/15 10:46:41;;;;;;;12.07;10.65;;;;;;;23.77;51.57;94822.13;5035442;28;20492;-85
2022/08/15 10:49:12;;;;;;;10.57;9.27;;;;;;;23.75;51.95;94813.38;5028876;28;20027;-84
2022/08/15 10:52:01;;;;;;;12.77;9.85;;;;;;;23.82;51.61;94815.81;5029852;28;20029;-85
2022/08/15 10:54:48;;;;;;;13.95;10.10;;;;;;;24.05;50.49;94814.38;5028806;28;20484;-84
2022/08/15 10:57:16;;;;;;;10.68;9.40;;;;;;;24.03;49.87;94805.66;5027667;28;20041;-85
2022/08/15 10:59:44;;;;;;;11.75;10.32;;;;;;;24.11;50.39;94808.91;5028105;28;20061;-84
2022/08/15 11:02:18;;;;;;;12.70;9.45;;;;;;;24.28;49.86;94817.63;5043943;28;20025;-84
2022/08/15 11:04:43;;;;;;;10.38;9.25;;;;;;;24.51;49.22;94814.50;5028605;28;20029;-87
2022/08/15 11:07:21;;;;;;;11.75;10.02;;;;;;;24.60;49.80;94806.53;5028892;28;20030;-86
2022/08/15 11:10:08;;;;;;;10.73;8.82;;;;;;;24.64;47.83;94807.59;5028894;28;20303;-85
2022/08/15 11:12:36;;;;;;;11.80;9.43;;;;;;;24.59;48.28;94805.72;5027482;28;20029;-84
2022/08/15 11:15:18;;;;;;;9.73;8.73;;;;;;;24.68;47.36;94800.47;5014769;28;20104;-84
2022/08/15 11:17:45;;;;;;;10.85;8.77;;;;;;;24.97;48.28;94808.00;5029166;28;20485;-84
2022/08/15 11:20:22;;;;;;;11.27;8.15;;;;;;;25.18;47.22;94796.88;5028398;28;20038;-85
2022/08/15 11:22:50;;;;;;;9.63;8.05;;;;;;;25.55;45.64;94800.94;5029295;28;20089;-84
2022/08/15 11:25:19;;;;;;;9.57;8.57;;;;;;;25.36;45.66;94791.81;5028566;28;20029;-84
2022/08/15 11:28:03;;;;;;;8.85;7.70;;;;;;;25.27;45.58;94797.91;5028492;28;20029;-84
2022/08/15 11:30:32;;;;;;;9.10;8.02;;;;;;;25.51;45.04;94804.56;5027508;28;20041;-84
2022/08/15 11:33:18;;;;;;;9.32;8.00;;;;;;;25.53;44.64;94785.88;5027960;28;20029;-84
2022/08/15 11:35:44;;;;;;;9.82;8.07;;;;;;;25.63;44.13;94785.78;5028745;28;20021;-83
2022/08/15 11:38:09;;;;;;;8.27;6.78;;;;;;;25.79;43.45;94791.97;5026772;28;20500;-84
2022/08/15 11:40:41;;;;;;;10.38;8.18;;;;;;;25.68;44.87;94785.75;5010434;28;20036;-83
2022/08/15 11:43:07;;;;;;;10.32;8.05;;;;;;;25.72;43.93;94793.41;5027624;28;20025;-84